createdAt,value
2019-03-10T00:00:11.200Z,0.00
2019-03-10T00:01:11.192Z,0.00
2019-03-10T00:02:11.183Z,0.00
2019-03-10T00:03:11.176Z,0.00
2019-03-10T00:04:11.168Z,0.00
2019-03-10T00:05:11.156Z,0.00
2019-03-10T00:06:11.199Z,0.00
2019-03-10T00:07:11.141Z,0.00
2019-03-10T00:08:11.133Z,0.00
2019-03-10T00:09:11.123Z,0.00
2019-03-10T00:10:11.111Z,0.00
2019-03-10T00:11:11.099Z,0.00
2019-03-10T00:12:11.092Z,0.00
2019-03-10T00:13:11.088Z,0.00
2019-03-10T00:14:11.080Z,0.00
2019-03-10T00:15:11.071Z,0.00
2019-03-10T00:16:11.065Z,0.00
2019-03-10T00:17:11.051Z,0.00
2019-03-10T00:18:11.038Z,0.00
2019-03-10T00:19:11.033Z,0.00
2019-03-10T00:20:11.037Z,0.00
2019-03-10T00:21:11.021Z,0.00
2019-03-10T00:22:11.014Z,0.00
2019-03-10T00:23:10.999Z,0.00
2019-03-10T00:24:10.991Z,0.00
2019-03-10T00:25:10.986Z,0.00
2019-03-10T00:26:10.976Z,0.00
2019-03-10T00:27:10.969Z,0.00
2019-03-10T00:28:10.959Z,0.00
2019-03-10T00:29:10.945Z,0.00
2019-03-10T00:30:10.937Z,0.00
2019-03-10T00:31:10.926Z,0.00
2019-03-10T00:32:10.917Z,0.00
2019-03-10T00:33:10.915Z,0.00
2019-03-10T00:34:10.906Z,0.00
2019-03-10T00:35:10.902Z,0.00
2019-03-10T00:36:10.893Z,0.00
2019-03-10T00:37:10.879Z,0.00
2019-03-10T00:38:10.868Z,0.00
2019-03-10T00:39:10.864Z,0.00
2019-03-10T00:40:10.856Z,0.00
2019-03-10T00:41:10.842Z,0.00
2019-03-10T00:42:10.833Z,0.00
2019-03-10T00:43:10.821Z,0.00
2019-03-10T00:44:10.813Z,0.00
2019-03-10T00:45:10.811Z,0.00
2019-03-10T00:46:10.799Z,0.00
2019-03-10T00:47:10.794Z,0.00
2019-03-10T00:48:10.786Z,0.00
2019-03-10T00:49:10.772Z,0.00
2019-03-10T00:50:10.822Z,0.00
2019-03-10T00:51:10.753Z,0.00
2019-03-10T00:52:10.743Z,0.00
2019-03-10T00:53:10.739Z,0.00
2019-03-10T00:54:10.731Z,0.00
2019-03-10T00:55:10.717Z,0.00
2019-03-10T00:56:10.709Z,0.00
2019-03-10T00:57:10.703Z,0.00
2019-03-10T00:58:10.695Z,0.00
2019-03-10T00:59:10.688Z,0.00
2019-03-10T01:00:10.679Z,0.00
2019-03-10T01:01:10.667Z,0.00
2019-03-10T01:02:10.658Z,0.00
2019-03-10T01:03:10.649Z,0.00
2019-03-10T01:04:10.642Z,0.00
2019-03-10T01:05:10.635Z,0.00
2019-03-10T01:06:10.624Z,0.00
2019-03-10T01:07:10.619Z,0.00
2019-03-10T01:08:10.607Z,0.00
2019-03-10T01:09:10.592Z,0.00
2019-03-10T01:10:10.583Z,0.00
2019-03-10T01:11:10.579Z,0.00
2019-03-10T01:12:10.570Z,0.00
2019-03-10T01:13:10.558Z,0.00
2019-03-10T01:14:10.552Z,0.00
2019-03-10T01:15:10.541Z,0.00
2019-03-10T01:16:10.533Z,0.00
2019-03-10T01:17:10.528Z,0.00
2019-03-10T01:18:10.520Z,0.00
2019-03-10T01:19:10.512Z,0.00
2019-03-10T01:20:10.502Z,0.00
2019-03-10T01:21:10.492Z,0.00
2019-03-10T01:22:10.479Z,0.00
2019-03-10T01:23:10.467Z,0.00
2019-03-10T01:24:10.461Z,0.00
2019-03-10T01:25:10.456Z,0.00
2019-03-10T01:26:10.448Z,0.00
2019-03-10T01:27:10.433Z,0.00
2019-03-10T01:28:10.424Z,0.00
2019-03-10T01:29:10.422Z,0.00
2019-03-10T01:30:10.411Z,0.00
2019-03-10T01:31:10.405Z,0.00
2019-03-10T01:32:10.397Z,0.00
2019-03-10T01:33:10.383Z,0.00
2019-03-10T01:34:10.373Z,0.00
2019-03-10T01:35:10.367Z,0.00
2019-03-10T01:36:10.357Z,0.00
2019-03-10T01:37:10.352Z,0.00
2019-03-10T01:38:10.345Z,0.00
2019-03-10T01:39:10.331Z,0.00
2019-03-10T01:40:10.324Z,0.00
2019-03-10T01:41:10.311Z,0.00
2019-03-10T01:42:10.314Z,0.00
2019-03-10T01:43:10.298Z,0.00
2019-03-10T01:44:10.288Z,0.00
2019-03-10T01:45:10.273Z,0.00
2019-03-10T01:46:10.265Z,0.00
2019-03-10T01:47:10.263Z,0.00
2019-03-10T01:48:10.252Z,0.00
2019-03-10T01:49:10.247Z,0.00
2019-03-10T01:50:10.236Z,0.00
2019-03-10T01:51:10.243Z,0.00
2019-03-10T01:52:10.217Z,0.00
2019-03-10T01:53:10.204Z,0.00
2019-03-10T01:54:10.256Z,0.00
2019-03-10T01:55:10.189Z,0.00
2019-03-10T01:56:10.181Z,0.00
2019-03-10T01:57:10.182Z,0.00
2019-03-10T01:58:10.167Z,0.00
2019-03-10T01:59:10.154Z,0.00
2019-03-10T02:00:10.144Z,0.00
2019-03-10T02:01:10.140Z,0.00
2019-03-10T02:02:10.136Z,0.00
2019-03-10T02:03:10.120Z,0.00
2019-03-10T02:04:10.111Z,0.00
2019-03-10T02:05:10.101Z,0.00
2019-03-10T02:06:10.089Z,0.00
2019-03-10T02:07:10.080Z,0.00
2019-03-10T02:08:10.073Z,0.00
2019-03-10T02:09:10.067Z,0.00
2019-03-10T02:10:10.059Z,0.00
2019-03-10T02:11:10.055Z,0.00
2019-03-10T02:12:10.043Z,0.00
2019-03-10T02:13:10.031Z,0.00
2019-03-10T02:14:10.021Z,0.00
2019-03-10T02:15:10.016Z,0.00
2019-03-10T02:16:10.010Z,0.00
2019-03-10T02:17:09.997Z,0.00
2019-03-10T02:18:09.986Z,0.00
2019-03-10T02:19:09.975Z,0.00
2019-03-10T02:20:09.965Z,0.00
2019-03-10T02:21:09.964Z,0.00
2019-03-10T02:22:09.952Z,0.00
2019-03-10T02:23:09.944Z,0.00
2019-03-10T02:24:09.936Z,0.00
2019-03-10T02:25:09.923Z,0.00
2019-03-10T02:26:09.914Z,0.00
2019-03-10T02:27:09.912Z,0.00
2019-03-10T02:28:09.898Z,0.00
2019-03-10T02:29:09.895Z,0.00
2019-03-10T02:30:09.886Z,0.00
2019-03-10T02:31:09.936Z,0.00
2019-03-10T02:32:09.874Z,0.00
2019-03-10T02:33:09.861Z,0.00
2019-03-10T02:34:09.895Z,0.00
2019-03-10T02:35:09.842Z,0.00
2019-03-10T02:36:09.832Z,0.00
2019-03-10T02:37:09.820Z,0.00
2019-03-10T02:38:09.812Z,0.00
2019-03-10T02:39:09.801Z,0.00
2019-03-10T02:40:09.794Z,0.00
2019-03-10T02:41:09.790Z,0.00
2019-03-10T02:42:09.789Z,0.00
2019-03-10T02:43:09.774Z,0.00
2019-03-10T02:44:09.765Z,0.00
2019-03-10T02:45:09.751Z,0.00
2019-03-10T02:46:09.743Z,0.00
2019-03-10T02:47:09.739Z,0.00
2019-03-10T02:48:09.731Z,0.00
2019-03-10T02:49:09.722Z,0.00
2019-03-10T02:50:09.714Z,0.00
2019-03-10T02:51:09.773Z,0.00
2019-03-10T02:52:09.689Z,0.00
2019-03-10T02:53:09.689Z,0.00
2019-03-10T02:54:09.696Z,0.00
2019-03-10T02:55:09.671Z,0.00
2019-03-10T02:56:09.660Z,0.00
2019-03-10T02:57:09.649Z,0.00
2019-03-10T02:58:09.641Z,0.00
2019-03-10T02:59:09.626Z,0.00
2019-03-10T03:00:09.619Z,0.00
2019-03-10T03:01:09.615Z,0.00
2019-03-10T03:02:09.606Z,0.00
2019-03-10T03:03:09.592Z,0.00
2019-03-10T03:04:09.585Z,0.00
2019-03-10T03:05:09.585Z,0.00
2019-03-10T03:06:09.574Z,0.00
2019-03-10T03:07:09.578Z,0.00
2019-03-10T03:08:09.561Z,0.00
2019-03-10T03:09:09.542Z,0.00
2019-03-10T03:10:09.534Z,0.00
2019-03-10T03:11:09.523Z,0.00
2019-03-10T03:12:09.516Z,0.00
2019-03-10T03:13:09.511Z,0.00
2019-03-10T03:14:09.502Z,0.00
2019-03-10T03:15:09.491Z,0.00
2019-03-10T03:16:09.480Z,0.00
2019-03-10T03:17:09.485Z,0.00
2019-03-10T03:18:09.458Z,0.00
2019-03-10T03:19:09.456Z,0.00
2019-03-10T03:20:09.446Z,0.00
2019-03-10T03:21:09.432Z,0.00
2019-03-10T03:22:09.427Z,0.00
2019-03-10T03:23:09.418Z,0.00
2019-03-10T03:24:09.413Z,0.00
2019-03-10T03:25:09.406Z,0.00
2019-03-10T03:26:09.427Z,0.00
2019-03-10T03:27:09.392Z,0.00
2019-03-10T03:28:09.378Z,0.00
2019-03-10T03:29:09.365Z,0.00
2019-03-10T03:30:09.373Z,0.00
2019-03-10T03:31:09.346Z,0.00
2019-03-10T03:32:09.337Z,0.00
2019-03-10T03:33:09.333Z,0.00
2019-03-10T03:34:09.325Z,0.00
2019-03-10T03:35:09.309Z,0.00
2019-03-10T03:36:09.302Z,0.00
2019-03-10T03:37:09.298Z,0.00
2019-03-10T03:38:09.287Z,0.00
2019-03-10T03:39:09.282Z,0.00
2019-03-10T03:40:09.272Z,0.00
2019-03-10T03:41:09.258Z,0.00
2019-03-10T03:42:09.250Z,0.00
2019-03-10T03:43:09.241Z,0.00
2019-03-10T03:44:09.237Z,0.00
2019-03-10T03:45:09.227Z,0.00
2019-03-10T03:46:09.218Z,0.00
2019-03-10T03:47:09.207Z,0.00
2019-03-10T03:48:09.199Z,0.00
2019-03-10T03:49:09.188Z,0.00
2019-03-10T03:50:09.174Z,0.00
2019-03-10T03:51:09.170Z,0.00
2019-03-10T03:52:09.162Z,0.00
2019-03-10T03:53:09.148Z,0.00
2019-03-10T03:54:09.138Z,0.00
2019-03-10T03:55:09.136Z,0.00
2019-03-10T03:56:09.140Z,0.00
2019-03-10T03:57:09.126Z,0.00
2019-03-10T03:58:09.111Z,0.00
2019-03-10T03:59:09.095Z,0.00
2019-03-10T04:00:09.083Z,0.00
2019-03-10T04:01:09.081Z,0.00
2019-03-10T04:02:09.071Z,0.00
2019-03-10T04:03:09.063Z,0.00
2019-03-10T04:04:09.056Z,0.00
2019-03-10T04:05:09.044Z,0.00
2019-03-10T04:06:09.035Z,0.00
2019-03-10T04:07:09.029Z,0.00
2019-03-10T04:08:09.019Z,0.00
2019-03-10T04:09:09.012Z,0.00
2019-03-10T04:10:08.997Z,0.00
2019-03-10T04:11:08.985Z,0.00
2019-03-10T04:12:08.976Z,0.00
2019-03-10T04:13:08.972Z,0.00
2019-03-10T04:14:08.964Z,0.00
2019-03-10T04:15:08.953Z,0.00
2019-03-10T04:16:08.945Z,0.00
2019-03-10T04:17:08.931Z,0.00
2019-03-10T04:18:08.922Z,0.00
2019-03-10T04:19:08.914Z,0.00
2019-03-10T04:20:08.914Z,0.00
2019-03-10T04:21:08.903Z,0.00
2019-03-10T04:22:08.890Z,0.00
2019-03-10T04:23:08.880Z,0.00
2019-03-10T04:24:08.869Z,0.00
2019-03-10T04:25:08.863Z,0.00
2019-03-10T04:26:08.854Z,0.00
2019-03-10T04:27:08.844Z,0.00
2019-03-10T04:28:08.836Z,0.00
2019-03-10T04:29:08.822Z,0.00
2019-03-10T04:30:08.810Z,0.00
2019-03-10T04:31:08.800Z,0.00
2019-03-10T04:32:08.793Z,0.00
2019-03-10T04:33:08.787Z,0.00
2019-03-10T04:34:08.779Z,0.00
2019-03-10T04:35:08.772Z,0.00
2019-03-10T04:36:08.761Z,0.00
2019-03-10T04:37:08.749Z,0.00
2019-03-10T04:38:08.738Z,0.00
2019-03-10T04:39:08.733Z,0.00
2019-03-10T04:40:08.725Z,0.00
2019-03-10T04:41:08.710Z,0.00
2019-03-10T04:42:08.705Z,0.00
2019-03-10T04:43:08.691Z,0.00
2019-03-10T04:44:08.683Z,0.00
2019-03-10T04:45:08.676Z,0.00
2019-03-10T04:46:08.664Z,0.00
2019-03-10T04:47:08.661Z,0.00
2019-03-10T04:48:08.650Z,0.00
2019-03-10T04:49:08.636Z,0.00
2019-03-10T04:50:08.622Z,0.00
2019-03-10T04:51:08.616Z,0.00
2019-03-10T04:52:08.608Z,0.00
2019-03-10T04:53:08.601Z,0.00
2019-03-10T04:54:08.593Z,0.00
2019-03-10T04:55:08.578Z,0.00
2019-03-10T04:56:08.568Z,0.00
2019-03-10T04:57:08.564Z,0.00
2019-03-10T04:58:08.554Z,0.00
2019-03-10T04:59:08.542Z,0.00
2019-03-10T05:00:08.533Z,0.00
2019-03-10T05:01:08.518Z,0.00
2019-03-10T05:02:08.507Z,0.00
2019-03-10T05:03:08.506Z,0.00
2019-03-10T05:04:08.491Z,0.00
2019-03-10T05:05:08.487Z,0.00
2019-03-10T05:06:08.477Z,0.00
2019-03-10T05:07:08.465Z,0.00
2019-03-10T05:08:08.456Z,0.00
2019-03-10T05:09:08.441Z,0.00
2019-03-10T05:10:08.432Z,0.00
2019-03-10T05:11:08.428Z,0.00
2019-03-10T05:12:08.417Z,0.00
2019-03-10T05:13:08.404Z,0.00
2019-03-10T05:14:08.396Z,0.00
2019-03-10T05:15:08.386Z,0.00
2019-03-10T05:16:08.376Z,0.00
2019-03-10T05:17:08.375Z,0.00
2019-03-10T05:18:08.362Z,0.00
2019-03-10T05:19:08.351Z,0.00
2019-03-10T05:20:08.342Z,0.00
2019-03-10T05:21:08.344Z,0.00
2019-03-10T05:22:08.317Z,0.00
2019-03-10T05:23:08.303Z,0.00
2019-03-10T05:24:08.294Z,0.00
2019-03-10T05:25:08.291Z,0.00
2019-03-10T05:26:08.279Z,0.00
2019-03-10T05:27:08.264Z,0.00
2019-03-10T05:28:08.256Z,0.00
2019-03-10T05:29:08.250Z,0.00
2019-03-10T05:30:08.241Z,0.00
2019-03-10T05:31:08.233Z,0.00
2019-03-10T05:32:08.223Z,0.00
2019-03-10T05:33:08.209Z,0.00
2019-03-10T05:34:08.202Z,0.00
2019-03-10T05:35:08.190Z,0.00
2019-03-10T05:36:08.180Z,0.00
2019-03-10T05:37:08.175Z,0.00
2019-03-10T05:38:08.165Z,0.00
2019-03-10T05:39:08.150Z,0.00
2019-03-10T05:40:08.145Z,0.00
2019-03-10T05:41:08.131Z,0.00
2019-03-10T05:42:08.114Z,0.00
2019-03-10T05:43:08.109Z,0.00
2019-03-10T05:44:08.103Z,0.00
2019-03-10T05:45:08.088Z,0.00
2019-03-10T05:46:08.074Z,0.00
2019-03-10T05:47:08.069Z,4.00
2019-03-10T05:48:08.062Z,4.00
2019-03-10T05:49:08.052Z,4.00
2019-03-10T05:50:08.041Z,4.00
2019-03-10T05:51:08.031Z,4.00
2019-03-10T05:52:08.021Z,8.00
2019-03-10T05:53:08.008Z,8.00
2019-03-10T05:54:07.996Z,12.00
2019-03-10T05:55:07.983Z,16.00
2019-03-10T05:56:07.973Z,16.00
2019-03-10T05:57:07.969Z,24.00
2019-03-10T05:58:07.958Z,24.00
2019-03-10T05:59:07.946Z,20.00
2019-03-10T06:00:07.933Z,24.00
2019-03-10T06:01:07.928Z,24.00
2019-03-10T06:02:07.917Z,28.00
2019-03-10T06:03:07.909Z,36.00
2019-03-10T06:04:07.899Z,40.00
2019-03-10T06:05:07.888Z,44.00
2019-03-10T06:06:07.875Z,48.00
2019-03-10T06:07:07.861Z,52.00
2019-03-10T06:08:07.854Z,60.00
2019-03-10T06:09:07.846Z,64.00
2019-03-10T06:10:07.837Z,68.00
2019-03-10T06:11:07.829Z,76.00
2019-03-10T06:12:07.818Z,84.00
2019-03-10T06:13:07.804Z,88.00
2019-03-10T06:14:07.792Z,100.00
2019-03-10T06:15:07.787Z,104.00
2019-03-10T06:16:07.776Z,104.00
2019-03-10T06:17:07.800Z,104.00
2019-03-10T06:18:13.643Z,104.00
2019-03-10T06:19:07.739Z,116.00
2019-03-10T06:20:07.728Z,120.00
2019-03-10T06:21:07.724Z,132.00
2019-03-10T06:22:07.717Z,144.00
2019-03-10T06:23:07.704Z,160.00
2019-03-10T06:24:07.692Z,176.00
2019-03-10T06:25:07.682Z,196.00
2019-03-10T06:26:07.666Z,196.00
2019-03-10T06:27:07.663Z,216.00
2019-03-10T06:28:07.650Z,256.00
2019-03-10T06:29:07.644Z,252.00
2019-03-10T06:30:07.633Z,248.00
2019-03-10T06:31:07.619Z,292.00
2019-03-10T06:32:07.609Z,360.00
2019-03-10T06:33:07.603Z,356.00
2019-03-10T06:34:07.592Z,284.00
2019-03-10T06:35:07.580Z,208.00
2019-03-10T06:36:07.574Z,192.00
2019-03-10T06:37:07.554Z,280.00
2019-03-10T06:38:07.545Z,452.00
2019-03-10T06:39:07.537Z,416.00
2019-03-10T06:40:07.527Z,392.00
2019-03-10T06:41:07.518Z,528.00
2019-03-10T06:42:07.509Z,576.00
2019-03-10T06:43:07.498Z,464.00
2019-03-10T06:44:07.488Z,428.00
2019-03-10T06:45:07.474Z,424.00
2019-03-10T06:46:07.464Z,424.00
2019-03-10T06:47:07.458Z,392.00
2019-03-10T06:48:07.447Z,348.00
2019-03-10T06:49:07.436Z,392.00
2019-03-10T06:50:07.421Z,476.00
2019-03-10T06:51:07.409Z,600.00
2019-03-10T06:52:07.402Z,824.00
2019-03-10T06:53:07.392Z,1260.00
2019-03-10T06:54:07.383Z,1012.00
2019-03-10T06:55:07.379Z,968.00
2019-03-10T06:56:07.363Z,964.00
2019-03-10T06:57:07.345Z,692.00
2019-03-10T06:58:07.333Z,440.00
2019-03-10T06:59:07.326Z,340.00
2019-03-10T07:00:07.315Z,268.00
2019-03-10T07:01:07.312Z,252.00
2019-03-10T07:02:07.299Z,260.00
2019-03-10T07:03:07.288Z,260.00
2019-03-10T07:04:07.276Z,324.00
2019-03-10T07:05:07.267Z,416.00
2019-03-10T07:06:07.256Z,520.00
2019-03-10T07:07:07.245Z,536.00
2019-03-10T07:08:07.232Z,544.00
2019-03-10T07:09:07.218Z,692.00
2019-03-10T07:10:07.206Z,880.00
2019-03-10T07:11:07.198Z,924.00
2019-03-10T07:12:07.189Z,1072.00
2019-03-10T07:13:07.182Z,940.00
2019-03-10T07:14:07.178Z,960.00
2019-03-10T07:15:07.158Z,1116.00
2019-03-10T07:16:07.148Z,1152.00
2019-03-10T07:17:07.149Z,1140.00
2019-03-10T07:18:07.120Z,852.00
2019-03-10T07:19:07.114Z,780.00
2019-03-10T07:20:07.104Z,884.00
2019-03-10T07:21:07.088Z,1272.00
2019-03-10T07:22:07.078Z,1468.00
2019-03-10T07:23:07.069Z,2032.00
2019-03-10T07:24:07.057Z,2396.00
2019-03-10T07:25:07.054Z,2176.00
2019-03-10T07:26:07.042Z,2212.00
2019-03-10T07:27:07.030Z,1836.00
2019-03-10T07:28:07.020Z,1344.00
2019-03-10T07:29:07.005Z,976.00
2019-03-10T07:30:06.992Z,752.00
2019-03-10T07:31:06.981Z,744.00
2019-03-10T07:32:08.854Z,840.00
2019-03-10T07:33:06.964Z,1252.00
2019-03-10T07:34:06.954Z,1400.00
2019-03-10T07:35:06.939Z,1536.00
2019-03-10T07:36:06.925Z,1632.00
2019-03-10T07:37:06.920Z,1384.00
2019-03-10T07:38:06.963Z,1276.00
2019-03-10T07:39:06.900Z,1204.00
2019-03-10T07:40:06.891Z,1500.00
2019-03-10T07:41:06.877Z,1720.00
2019-03-10T07:42:06.863Z,1428.00
2019-03-10T07:43:06.853Z,1584.00
2019-03-10T07:44:06.842Z,2176.00
2019-03-10T07:45:06.838Z,2308.00
2019-03-10T07:46:06.825Z,2532.00
2019-03-10T07:47:06.813Z,3096.00
2019-03-10T07:48:06.802Z,2592.00
2019-03-10T07:49:06.787Z,2748.00
2019-03-10T07:50:06.775Z,2732.00
2019-03-10T07:51:06.771Z,2880.00
2019-03-10T07:52:06.759Z,2780.00
2019-03-10T07:53:06.745Z,2512.00
2019-03-10T07:54:06.736Z,2228.00
2019-03-10T07:55:06.726Z,2276.00
2019-03-10T07:56:06.717Z,2512.00
2019-03-10T07:57:06.708Z,2320.00
2019-03-10T07:58:06.698Z,1660.00
2019-03-10T07:59:06.688Z,1708.00
2019-03-10T08:00:06.677Z,2088.00
2019-03-10T08:01:06.663Z,2136.00
2019-03-10T08:02:06.651Z,1824.00
2019-03-10T08:03:06.638Z,2444.00
2019-03-10T08:04:06.628Z,3664.00
2019-03-10T08:05:06.623Z,3920.00
2019-03-10T08:06:06.611Z,3356.00
2019-03-10T08:07:06.596Z,2088.00
2019-03-10T08:08:06.587Z,2284.00
2019-03-10T08:09:06.579Z,2720.00
2019-03-10T08:10:06.570Z,3220.00
2019-03-10T08:11:06.563Z,2424.00
2019-03-10T08:12:06.552Z,2520.00
2019-03-10T08:13:06.536Z,2516.00
2019-03-10T08:14:06.524Z,2752.00
2019-03-10T08:15:06.514Z,2556.00
2019-03-10T08:16:06.505Z,4072.00
2019-03-10T08:17:06.499Z,2780.00
2019-03-10T08:18:06.489Z,2500.00
2019-03-10T08:19:06.476Z,2280.00
2019-03-10T08:20:06.466Z,2268.00
2019-03-10T08:21:06.452Z,1604.00
2019-03-10T08:22:06.475Z,1284.00
2019-03-10T08:23:06.435Z,2148.00
2019-03-10T08:24:06.429Z,2024.00
2019-03-10T08:25:06.410Z,2144.00
2019-03-10T08:26:06.399Z,2592.00
2019-03-10T08:27:06.393Z,2604.00
2019-03-10T08:28:06.386Z,2224.00
2019-03-10T08:29:06.381Z,1888.00
2019-03-10T08:30:06.366Z,2356.00
2019-03-10T08:31:06.356Z,2696.00
2019-03-10T08:32:06.347Z,1900.00
2019-03-10T08:33:06.332Z,2308.00
2019-03-10T08:34:06.320Z,2496.00
2019-03-10T08:35:06.308Z,2560.00
2019-03-10T08:36:06.299Z,1836.00
2019-03-10T08:37:06.297Z,1844.00
2019-03-10T08:38:06.283Z,1712.00
2019-03-10T08:39:06.270Z,2080.00
2019-03-10T08:40:06.258Z,2140.00
2019-03-10T08:41:06.259Z,2516.00
2019-03-10T08:42:06.243Z,2928.00
2019-03-10T08:43:06.236Z,3044.00
2019-03-10T08:44:06.227Z,3548.00
2019-03-10T08:45:06.213Z,3008.00
2019-03-10T08:46:06.205Z,2484.00
2019-03-10T08:47:06.193Z,3048.00
2019-03-10T08:48:06.189Z,4324.00
2019-03-10T08:49:06.218Z,4144.00
2019-03-10T08:50:06.168Z,3076.00
2019-03-10T08:51:06.155Z,3984.00
2019-03-10T08:52:06.148Z,4428.00
2019-03-10T08:53:06.132Z,6612.00
2019-03-10T08:54:06.123Z,7580.00
2019-03-10T08:55:06.119Z,7728.00
2019-03-10T08:56:06.183Z,5740.00
2019-03-10T08:57:06.096Z,7868.00
2019-03-10T08:58:06.085Z,7016.00
2019-03-10T08:59:06.079Z,8244.00
2019-03-10T09:00:06.072Z,7388.00
2019-03-10T09:01:06.066Z,6512.00
2019-03-10T09:02:06.057Z,8620.00
2019-03-10T09:03:06.047Z,7020.00
2019-03-10T09:04:06.040Z,5628.00
2019-03-10T09:05:06.026Z,6940.00
2019-03-10T09:06:06.060Z,7520.00
2019-03-10T09:07:06.008Z,7888.00
2019-03-10T09:08:05.998Z,7452.00
2019-03-10T09:09:05.996Z,9208.00
2019-03-10T09:10:05.986Z,8692.00
2019-03-10T09:11:05.972Z,6796.00
2019-03-10T09:12:05.963Z,6768.00
2019-03-10T09:13:05.964Z,6064.00
2019-03-10T09:14:05.952Z,7836.00
2019-03-10T09:15:05.947Z,9584.00
2019-03-10T09:16:05.938Z,8596.00
2019-03-10T09:17:05.925Z,8336.00
2019-03-10T09:18:05.917Z,7908.00
2019-03-10T09:19:05.905Z,6616.00
2019-03-10T09:20:05.897Z,8632.00
2019-03-10T09:21:05.896Z,7220.00
2019-03-10T09:22:05.886Z,9340.00
2019-03-10T09:23:05.881Z,8408.00
2019-03-10T09:24:05.873Z,9952.00
2019-03-10T09:25:05.865Z,11660.00
2019-03-10T09:26:05.984Z,10228.00
2019-03-10T09:27:05.849Z,8588.00
2019-03-10T09:28:05.847Z,8868.00
2019-03-10T09:29:05.830Z,9292.00
2019-03-10T09:30:05.823Z,10748.00
2019-03-10T09:31:05.812Z,15236.00
2019-03-10T09:32:05.804Z,13400.00
2019-03-10T09:33:05.803Z,10036.00
2019-03-10T09:34:05.794Z,8316.00
2019-03-10T09:35:05.792Z,6676.00
2019-03-10T09:36:05.783Z,5752.00
2019-03-10T09:37:05.767Z,6688.00
2019-03-10T09:38:05.769Z,7964.00
2019-03-10T09:39:05.765Z,11632.00
2019-03-10T09:40:05.749Z,20800.00
2019-03-10T09:41:05.746Z,6856.00
2019-03-10T09:42:05.738Z,4820.00
2019-03-10T09:43:05.729Z,5568.00
2019-03-10T09:44:05.720Z,5320.00
2019-03-10T09:45:05.719Z,5680.00
2019-03-10T09:46:05.710Z,5020.00
2019-03-10T09:47:05.700Z,3644.00
2019-03-10T09:48:05.695Z,3640.00
2019-03-10T09:49:05.682Z,3740.00
2019-03-10T09:50:05.744Z,4000.00
2019-03-10T09:51:05.670Z,4184.00
2019-03-10T09:52:05.660Z,4068.00
2019-03-10T09:53:05.663Z,4736.00
2019-03-10T09:54:05.652Z,3872.00
2019-03-10T09:55:05.647Z,4152.00
2019-03-10T09:56:05.641Z,4108.00
2019-03-10T09:57:05.632Z,3760.00
2019-03-10T09:58:05.622Z,4468.00
2019-03-10T09:59:05.619Z,5680.00
2019-03-10T10:00:05.611Z,5064.00
2019-03-10T10:01:05.599Z,3440.00
2019-03-10T10:02:05.590Z,3880.00
2019-03-10T10:03:05.582Z,2836.00
2019-03-10T10:04:05.574Z,2456.00
2019-03-10T10:05:05.572Z,3168.00
2019-03-10T10:06:05.564Z,3176.00
2019-03-10T10:07:05.558Z,2676.00
2019-03-10T10:08:05.551Z,3040.00
2019-03-10T10:09:05.538Z,3212.00
2019-03-10T10:10:05.531Z,3120.00
2019-03-10T10:11:05.527Z,5052.00
2019-03-10T10:12:13.441Z,4520.00
2019-03-10T10:13:05.516Z,4916.00
2019-03-10T10:14:05.506Z,5760.00
2019-03-10T10:15:05.496Z,5236.00
2019-03-10T10:16:05.489Z,3536.00
2019-03-10T10:17:05.484Z,3268.00
2019-03-10T10:18:05.480Z,2968.00
2019-03-10T10:19:05.468Z,3220.00
2019-03-10T10:20:05.460Z,3780.00
2019-03-10T10:21:05.452Z,4700.00
2019-03-10T10:22:05.439Z,6524.00
2019-03-10T10:23:05.439Z,8012.00
2019-03-10T10:24:05.433Z,10748.00
2019-03-10T10:25:05.427Z,22944.00
2019-03-10T10:26:05.418Z,16352.00
2019-03-10T10:27:05.408Z,12380.00
2019-03-10T10:28:05.402Z,13916.00
2019-03-10T10:29:05.452Z,8300.00
2019-03-10T10:30:05.384Z,12780.00
2019-03-10T10:31:05.383Z,28608.00
2019-03-10T10:32:05.375Z,30336.00
2019-03-10T10:33:05.370Z,30400.00
2019-03-10T10:34:05.361Z,30976.00
2019-03-10T10:35:05.356Z,29152.00
2019-03-10T10:36:05.353Z,27392.00
2019-03-10T10:37:05.355Z,24992.00
2019-03-10T10:38:05.349Z,23104.00
2019-03-10T10:39:05.348Z,24000.00
2019-03-10T10:40:05.346Z,8836.00
2019-03-10T10:41:05.338Z,22400.00
2019-03-10T10:42:05.337Z,13208.00
2019-03-10T10:43:05.333Z,24640.00
2019-03-10T10:44:05.333Z,16832.00
2019-03-10T10:45:05.340Z,25952.00
2019-03-10T10:46:05.338Z,22336.00
2019-03-10T10:47:05.333Z,11800.00
2019-03-10T10:48:05.338Z,25696.00
2019-03-10T10:49:05.356Z,21856.00
2019-03-10T10:50:05.356Z,23168.00
2019-03-10T10:51:05.347Z,22368.00
2019-03-10T10:52:05.360Z,6116.00
2019-03-10T10:53:05.366Z,22016.00
2019-03-10T10:54:05.349Z,22400.00
2019-03-10T10:55:05.353Z,22688.00
2019-03-10T10:56:05.378Z,11908.00
2019-03-10T10:57:05.365Z,21248.00
2019-03-10T10:58:05.676Z,13752.00
2019-03-10T10:59:05.365Z,15948.00
2019-03-10T11:00:05.369Z,13348.00
2019-03-10T11:01:05.367Z,10416.00
2019-03-10T11:02:05.369Z,10664.00
2019-03-10T11:03:05.377Z,12656.00
2019-03-10T11:04:05.381Z,20640.00
2019-03-10T11:05:05.378Z,12996.00
2019-03-10T11:06:05.381Z,10448.00
2019-03-10T11:07:05.387Z,7820.00
2019-03-10T11:08:05.389Z,5528.00
2019-03-10T11:09:05.396Z,5960.00
2019-03-10T11:10:05.399Z,3732.00
2019-03-10T11:11:05.401Z,4396.00
2019-03-10T11:12:05.402Z,4948.00
2019-03-10T11:13:05.396Z,6040.00
2019-03-10T11:14:05.397Z,7580.00
2019-03-10T11:15:05.399Z,7876.00
2019-03-10T11:16:05.395Z,9792.00
2019-03-10T11:17:05.398Z,8684.00
2019-03-10T11:18:09.346Z,10336.00
2019-03-10T11:19:05.393Z,9652.00
2019-03-10T11:20:05.391Z,7064.00
2019-03-10T11:21:05.401Z,5544.00
2019-03-10T11:22:05.392Z,4432.00
2019-03-10T11:23:05.394Z,5056.00
2019-03-10T11:24:05.394Z,7872.00
2019-03-10T11:25:05.386Z,8620.00
2019-03-10T11:26:05.384Z,15232.00
2019-03-10T11:27:05.376Z,28032.00
2019-03-10T11:28:05.375Z,29440.00
2019-03-10T11:29:05.378Z,29792.00
2019-03-10T11:30:05.374Z,19776.00
2019-03-10T11:31:05.378Z,13332.00
2019-03-10T11:32:05.374Z,13628.00
2019-03-10T11:33:05.367Z,12804.00
2019-03-10T11:34:05.366Z,12808.00
2019-03-10T11:35:05.368Z,20736.00
2019-03-10T11:36:05.366Z,18368.00
2019-03-10T11:37:05.380Z,10252.00
2019-03-10T11:38:05.362Z,7704.00
2019-03-10T11:39:05.358Z,7532.00
2019-03-10T11:40:05.375Z,9316.00
2019-03-10T11:41:05.358Z,8684.00
2019-03-10T11:42:05.356Z,9420.00
2019-03-10T11:43:05.360Z,11196.00
2019-03-10T11:44:05.356Z,11976.00
2019-03-10T11:45:05.348Z,8956.00
2019-03-10T11:46:05.349Z,10360.00
2019-03-10T11:47:05.348Z,11572.00
2019-03-10T11:48:05.345Z,12068.00
2019-03-10T11:49:05.349Z,11588.00
2019-03-10T11:50:05.346Z,12204.00
2019-03-10T11:51:05.339Z,12084.00
2019-03-10T11:52:05.339Z,13364.00
2019-03-10T11:53:05.341Z,13868.00
2019-03-10T11:54:05.340Z,13900.00
2019-03-10T11:55:05.387Z,14840.00
2019-03-10T11:56:05.333Z,15792.00
2019-03-10T11:57:05.332Z,12240.00
2019-03-10T11:58:05.324Z,13276.00
2019-03-10T11:59:05.322Z,12672.00
2019-03-10T12:00:05.321Z,11768.00
2019-03-10T12:01:05.326Z,13756.00
2019-03-10T12:02:15.512Z,14312.00
2019-03-10T12:03:05.327Z,12736.00
2019-03-10T12:04:05.320Z,13544.00
2019-03-10T12:05:05.331Z,8364.00
2019-03-10T12:06:05.311Z,8344.00
2019-03-10T12:07:05.313Z,8576.00
2019-03-10T12:08:05.312Z,9336.00
2019-03-10T12:09:05.308Z,9220.00
2019-03-10T12:10:05.304Z,9760.00
2019-03-10T12:11:05.298Z,8064.00
2019-03-10T12:12:05.297Z,9648.00
2019-03-10T12:13:05.298Z,7496.00
2019-03-10T12:14:05.295Z,7848.00
2019-03-10T12:15:05.293Z,9244.00
2019-03-10T12:16:05.290Z,12676.00
2019-03-10T12:17:05.285Z,14920.00
2019-03-10T12:18:05.281Z,9900.00
2019-03-10T12:19:05.280Z,11324.00
2019-03-10T12:20:05.279Z,15324.00
2019-03-10T12:21:05.279Z,10024.00
2019-03-10T12:22:05.275Z,10680.00
2019-03-10T12:23:05.270Z,14104.00
2019-03-10T12:24:05.266Z,13368.00
2019-03-10T12:25:05.269Z,12812.00
2019-03-10T12:26:05.264Z,11368.00
2019-03-10T12:27:05.259Z,9752.00
2019-03-10T12:28:05.257Z,12100.00
2019-03-10T12:29:05.251Z,9816.00
2019-03-10T12:30:05.247Z,13524.00
2019-03-10T12:31:05.246Z,11212.00
2019-03-10T12:32:05.242Z,11196.00
2019-03-10T12:33:05.245Z,13852.00
2019-03-10T12:34:05.588Z,14648.00
2019-03-10T12:35:05.242Z,12240.00
2019-03-10T12:36:05.233Z,9012.00
2019-03-10T12:37:05.225Z,11592.00
2019-03-10T12:38:05.222Z,11056.00